Time,TemperatureF,DewpointF,PressureIn,WindDirection,WindDirectionDegrees,WindSpeedMPH,WindSpeedGustMPH,Humidity,HourlyPrecipIn,Conditions,Clouds,dailyrainin,SoftwareType,DateUTC
2013-09-17 00:02:00,51.9,45.3,29.35,WNW,282,34.5,34.5,78,0.00,RA,,0.00,WeatherDisplay:10.37,2013-09-16 23:02:00,
2013-09-17 00:07:00,51.9,45.9,29.35,WNW,284,29.9,29.9,80,0.00,RA,,0.00,WeatherDisplay:10.37,2013-09-16 23:07:00,
2013-09-17 00:12:00,51.8,45.2,29.36,WNW,303,26.5,26.5,78,0.00,CLR,,0.00,WeatherDisplay:10.37,2013-09-16 23:12:00,
2013-09-17 00:17:00,51.7,45.4,29.35,WNW,290,23.0,23.0,79,0.00,CLR,,0.00,WeatherDisplay:10.37,2013-09-16 23:17:00,
2013-09-17 00:22:00,51.7,45.4,29.36,WNW,299,24.2,24.2,79,0.00,CLR,,0.00,WeatherDisplay:10.37,2013-09-16 23:22:00,
2013-09-17 00:27:00,51.7,45.1,29.36,West,261,25.3,25.3,78,0.00,CLR,,0.00,WeatherDisplay:10.37,2013-09-16 23:27:00,
2013-09-17 00:32:00,51.7,45.1,29.36,West,270,21.9,21.9,78,0.00,CLR,,0.00,WeatherDisplay:10.37,2013-09-16 23:32:00,
2013-09-17 00:37:00,51.6,45.0,29.36,WNW,293,18.4,18.4,78,0.00,CLR,,0.00,WeatherDisplay:10.37,2013-09-16 23:37:00,
2013-09-17 00:42:00,51.5,44.9,29.36,WNW,298,16.1,16.1,78,0.00,CLR,,0.00,WeatherDisplay:10.37,2013-09-16 23:42:00,
2013-09-17 00:47:00,51.3,45.0,29.36,West,278,21.9,21.9,79,0.00,CLR,,0.00,WeatherDisplay:10.37,2013-09-16 23:47:00,
2013-09-17 00:52:00,51.1,44.8,29.36,NW,310,19.6,19.6,79,0.00,CLR,,0.00,WeatherDisplay:10.37,2013-09-16 23:52:00,
2013-09-17 00:57:00,51.0,44.4,29.36,NW,315,19.6,19.6,78,0.00,CLR,,0.00,WeatherDisplay:10.37,2013-09-16 23:57:00,
2013-09-17 01:02:00,50.8,44.5,29.36,WNW,303,18.4,18.4,79,0.00,CLR,,0.00,WeatherDisplay:10.37,2013-09-17 00:02:00,
2013-09-17 01:07:00,50.7,44.4,29.36,WNW,296,20.7,20.7,79,0.00,CLR,,0.00,WeatherDisplay:10.37,2013-09-17 00:07:00,
2013-09-17 01:12:00,50.6,44.7,29.36,WNW,300,19.6,19.6,80,0.00,CLR,,0.00,WeatherDisplay:10.37,2013-09-17 00:12:00,
2013-09-17 01:17:00,50.4,44.5,29.36,WNW,293,20.7,20.7,80,0.00,CLR,,0.00,WeatherDisplay:10.37,2013-09-17 00:17:00,
2013-09-17 01:22:00,50.3,44.7,29.36,NW,312,16.1,16.1,81,0.00,CLR,,0.00,WeatherDisplay:10.37,2013-09-17 00:22:00,
2013-09-17 01:27:00,50.0,45.0,29.37,NW,305,16.1,16.1,83,0.00,CLR,,0.00,WeatherDisplay:10.37,2013-09-17 00:27:00,
2013-09-17 01:32:00,49.8,45.2,29.36,NW,306,15.0,15.0,84,0.00,CLR,,0.01,WeatherDisplay:10.37,2013-09-17 00:32:00,
2013-09-17 01:37:00,49.7,45.1,29.36,West,260,21.9,21.9,84,0.01,RA,,0.01,WeatherDisplay:10.37,2013-09-17 00:37:00,
2013-09-17 01:42:00,49.6,45.0,29.36,NW,305,19.6,19.6,84,0.01,RA,,0.01,WeatherDisplay:10.37,2013-09-17 00:42:00,
2013-09-17 01:47:00,49.8,44.8,29.35,West,266,26.5,26.5,83,0.01,CLR,,0.01,WeatherDisplay:10.37,2013-09-17 00:47:00,
2013-09-17 01:52:00,50.0,45.4,29.36,WNW,300,23.0,23.0,84,0.01,CLR,,0.01,WeatherDisplay:10.37,2013-09-17 00:52:00,
2013-09-17 01:57:00,50.3,45.0,29.36,West,280,25.3,25.3,82,0.01,CLR,,0.01,WeatherDisplay:10.37,2013-09-17 00:57:00,
2013-09-17 02:02:00,50.4,45.4,29.35,NW,318,21.9,21.9,83,0.01,CLR,,0.01,WeatherDisplay:10.37,2013-09-17 01:02:00,
2013-09-17 02:07:00,50.4,45.4,29.35,West,264,24.2,24.2,83,0.01,CLR,,0.01,WeatherDisplay:10.37,2013-09-17 01:07:00,
2013-09-17 02:12:00,50.7,45.4,29.35,WNW,298,26.5,26.5,82,0.01,CLR,,0.01,WeatherDisplay:10.37,2013-09-17 01:12:00,
2013-09-17 02:17:00,50.8,44.9,29.35,WNW,294,29.9,29.9,80,0.01,CLR,,0.01,WeatherDisplay:10.37,2013-09-17 01:17:00,
2013-09-17 02:22:00,50.8,45.2,29.34,NW,309,26.5,26.5,81,0.01,CLR,,0.01,WeatherDisplay:10.37,2013-09-17 01:22:00,
2013-09-17 02:27:00,50.8,45.2,29.35,WNW,303,24.2,24.2,81,0.01,CLR,,0.01,WeatherDisplay:10.37,2013-09-17 01:27:00,
2013-09-17 02:32:00,50.7,45.1,29.35,WNW,296,19.6,19.6,81,0.01,CLR,,0.01,WeatherDisplay:10.37,2013-09-17 01:32:00,
2013-09-17 02:37:00,50.8,44.9,29.35,WNW,301,24.2,24.2,80,0.00,CLR,,0.01,WeatherDisplay:10.37,2013-09-17 01:37:00,
2013-09-17 02:42:00,50.8,44.5,29.35,WNW,303,23.0,23.0,79,0.00,CLR,,0.01,WeatherDisplay:10.37,2013-09-17 01:42:00,
2013-09-17 02:47:00,50.8,44.9,29.35,West,267,32.0,32.0,80,0.00,CLR,,0.01,WeatherDisplay:10.37,2013-09-17 01:47:00,
2013-09-17 02:52:00,50.8,44.9,29.35,WNW,301,31.1,31.1,80,0.00,CLR,,0.01,WeatherDisplay:10.37,2013-09-17 01:52:00,
2013-09-17 02:57:00,51.0,45.0,29.34,NW,306,33.4,33.4,80,0.00,CLR,,0.01,WeatherDisplay:10.37,2013-09-17 01:57:00,
2013-09-17 03:02:00,51.2,45.2,29.34,WNW,296,36.8,36.8,80,0.00,CLR,,0.01,WeatherDisplay:10.37,2013-09-17 02:02:00,
2013-09-17 03:07:00,51.3,45.3,29.34,WNW,298,31.1,31.1,80,0.00,CLR,,0.01,WeatherDisplay:10.37,2013-09-17 02:07:00,
2013-09-17 03:12:00,51.2,44.2,29.34,NW,309,27.6,27.6,77,0.00,CLR,,0.01,WeatherDisplay:10.37,2013-09-17 02:12:00,
2013-09-17 03:17:00,51.1,44.8,29.34,WNW,287,26.5,26.5,79,0.00,CLR,,0.01,WeatherDisplay:10.37,2013-09-17 02:17:00,
2013-09-17 03:22:00,51.0,44.7,29.35,WNW,303,31.1,31.1,79,0.00,CLR,,0.01,WeatherDisplay:10.37,2013-09-17 02:22:00,
2013-09-17 03:27:00,50.9,44.3,29.34,NNW,334,25.3,25.3,78,0.00,CLR,,0.01,WeatherDisplay:10.37,2013-09-17 02:27:00,
2013-09-17 03:32:00,50.9,44.3,29.34,West,280,26.5,26.5,78,0.00,CLR,,0.01,WeatherDisplay:10.37,2013-09-17 02:32:00,
2013-09-17 03:37:00,50.9,44.9,29.34,WNW,303,23.0,23.0,80,0.00,CLR,,0.01,WeatherDisplay:10.37,2013-09-17 02:37:00,
2013-09-17 03:42:00,50.8,44.5,29.34,WNW,302,20.7,20.7,79,0.00,CLR,,0.01,WeatherDisplay:10.37,2013-09-17 02:42:00,
2013-09-17 03:47:00,50.8,44.9,29.34,NW,320,26.5,26.5,80,0.00,CLR,,0.01,WeatherDisplay:10.37,2013-09-17 02:47:00,
2013-09-17 03:52:00,50.8,44.9,29.34,NW,306,27.0,27.0,80,0.00,CLR,,0.01,WeatherDisplay:10.37,2013-09-17 02:52:00,
2013-09-17 03:57:00,50.4,44.8,29.33,NW,308,20.0,20.0,81,0.00,CLR,,0.01,WeatherDisplay:10.37,2013-09-17 02:57:00,
2013-09-17 04:02:00,50.3,45.0,29.33,West,276,21.9,21.9,82,0.00,CLR,,0.01,WeatherDisplay:10.37,2013-09-17 03:02:00,
2013-09-17 04:07:00,50.5,45.2,29.33,WNW,292,20.7,20.7,82,0.00,CLR,,0.01,WeatherDisplay:10.37,2013-09-17 03:07:00,
2013-09-17 04:12:00,50.5,45.2,29.33,WSW,252,21.0,21.0,82,0.00,CLR,,0.01,WeatherDisplay:10.37,2013-09-17 03:12:00,
2013-09-17 04:17:00,50.6,45.0,29.32,NW,311,27.6,27.6,81,0.00,CLR,,0.01,WeatherDisplay:10.37,2013-09-17 03:17:00,
2013-09-17 04:22:00,50.8,44.9,29.33,NW,312,27.6,27.6,80,0.00,CLR,,0.01,WeatherDisplay:10.37,2013-09-17 03:22:00,
2013-09-17 04:27:00,50.8,44.9,29.33,WNW,300,26.5,26.5,80,0.00,CLR,,0.01,WeatherDisplay:10.37,2013-09-17 03:27:00,
2013-09-17 04:32:00,50.9,44.9,29.32,West,278,25.3,25.3,80,0.00,CLR,,0.01,WeatherDisplay:10.37,2013-09-17 03:32:00,
2013-09-17 04:37:00,51.1,44.8,29.33,WNW,298,29.9,29.9,79,0.00,CLR,,0.01,WeatherDisplay:10.37,2013-09-17 03:37:00,
2013-09-17 04:42:00,51.2,45.2,29.33,WNW,293,24.2,24.2,80,0.00,CLR,,0.01,WeatherDisplay:10.37,2013-09-17 03:42:00,
2013-09-17 04:47:00,51.2,44.9,29.32,NW,316,26.5,26.5,79,0.00,CLR,,0.01,WeatherDisplay:10.37,2013-09-17 03:47:00,
2013-09-17 04:52:00,51.3,44.3,29.32,WNW,296,26.5,26.5,77,0.00,CLR,,0.01,WeatherDisplay:10.37,2013-09-17 03:52:00,
2013-09-17 04:57:00,51.4,44.8,29.32,West,273,32.2,32.2,78,0.00,CLR,,0.01,WeatherDisplay:10.37,2013-09-17 03:57:00,
2013-09-17 05:01:00,51.5,45.2,29.33,WNW,296,24.2,24.2,79,0.00,CLR,,0.01,WeatherDisplay:10.37,2013-09-17 04:01:00,
2013-09-17 05:06:00,51.4,45.1,29.32,WNW,297,26.5,26.5,79,0.00,CLR,,0.01,WeatherDisplay:10.37,2013-09-17 04:06:00,
2013-09-17 05:11:00,51.5,45.2,29.32,WNW,287,28.0,28.0,79,0.00,CLR,,0.01,WeatherDisplay:10.37,2013-09-17 04:11:00,
2013-09-17 05:16:00,51.6,45.0,29.32,West,268,27.6,27.6,78,0.00,CLR,,0.01,WeatherDisplay:10.37,2013-09-17 04:16:00,
2013-09-17 05:21:00,51.5,44.9,29.32,West,278,26.5,26.5,78,0.00,CLR,,0.01,WeatherDisplay:10.37,2013-09-17 04:21:00,
2013-09-17 05:26:00,51.5,44.5,29.31,West,280,21.9,21.9,77,0.00,CLR,,0.01,WeatherDisplay:10.37,2013-09-17 04:26:00,
2013-09-17 05:31:00,51.4,45.1,29.32,WNW,289,24.2,24.2,79,0.00,CLR,,0.01,WeatherDisplay:10.37,2013-09-17 04:31:00,
2013-09-17 05:36:00,51.4,45.4,29.32,WNW,290,24.2,24.2,80,0.00,CLR,,0.01,WeatherDisplay:10.37,2013-09-17 04:36:00,
2013-09-17 05:41:00,51.0,45.4,29.32,NW,313,34.5,34.5,81,0.00,CLR,,0.01,WeatherDisplay:10.37,2013-09-17 04:41:00,
2013-09-17 05:46:00,51.0,45.4,29.32,WNW,303,26.5,26.5,81,0.00,CLR,,0.01,WeatherDisplay:10.37,2013-09-17 04:46:00,
2013-09-17 05:51:00,50.9,45.3,29.32,WNW,297,26.5,26.5,81,0.00,CLR,,0.01,WeatherDisplay:10.37,2013-09-17 04:51:00,
2013-09-17 05:56:00,50.9,44.9,29.32,WNW,301,29.9,29.9,80,0.00,CLR,,0.01,WeatherDisplay:10.37,2013-09-17 04:56:00,
2013-09-17 06:01:00,51.1,44.1,29.31,WNW,291,31.1,31.1,77,0.00,CLR,,0.01,WeatherDisplay:10.37,2013-09-17 05:01:00,
2013-09-17 06:06:00,51.0,44.7,29.32,West,280,26.5,26.5,79,0.00,CLR,,0.01,WeatherDisplay:10.37,2013-09-17 05:06:00,
2013-09-17 06:11:00,51.0,44.7,29.31,WNW,296,24.2,24.2,79,0.00,CLR,,0.01,WeatherDisplay:10.37,2013-09-17 05:11:00,
2013-09-17 06:16:00,51.2,45.6,29.31,WNW,293,20.7,20.7,81,0.00,CLR,,0.01,WeatherDisplay:10.37,2013-09-17 05:16:00,
2013-09-17 06:21:00,51.1,45.8,29.31,WNW,296,24.2,24.2,82,0.00,CLR,,0.01,WeatherDisplay:10.37,2013-09-17 05:21:00,
2013-09-17 06:26:00,51.1,45.5,29.31,WSW,258,25.3,25.3,81,0.00,CLR,,0.01,WeatherDisplay:10.37,2013-09-17 05:26:00,
2013-09-17 06:31:00,51.2,46.5,29.31,WSW,245,21.9,22.0,84,0.00,CLR,,0.01,WeatherDisplay:10.37,2013-09-17 05:31:00,
2013-09-17 06:36:00,51.3,46.0,29.31,West,264,26.5,26.5,82,0.00,CLR,,0.01,WeatherDisplay:10.37,2013-09-17 05:36:00,
2013-09-17 06:41:00,51.3,46.0,29.31,West,280,21.9,21.9,82,0.00,CLR,,0.01,WeatherDisplay:10.37,2013-09-17 05:41:00,
2013-09-17 06:46:00,51.5,46.2,29.32,West,264,23.0,23.0,82,0.00,CLR,,0.01,WeatherDisplay:10.37,2013-09-17 05:46:00,
2013-09-17 06:51:00,51.6,46.3,29.32,WNW,296,23.0,23.0,82,0.00,CLR,,0.01,WeatherDisplay:10.37,2013-09-17 05:51:00,
2013-09-17 06:56:00,51.6,45.3,29.32,West,280,24.2,24.2,79,0.00,CLR,,0.01,WeatherDisplay:10.37,2013-09-17 05:56:00,
2013-09-17 07:01:00,51.6,45.6,29.31,West,269,28.8,28.8,80,0.00,CLR,,0.01,WeatherDisplay:10.37,2013-09-17 06:01:00,
2013-09-17 07:06:00,51.6,46.0,29.31,West,272,24.2,24.2,81,0.00,CLR,,0.01,WeatherDisplay:10.37,2013-09-17 06:06:00,
2013-09-17 07:11:00,51.5,45.5,29.32,West,274,32.2,32.2,80,0.00,CLR,,0.01,WeatherDisplay:10.37,2013-09-17 06:11:00,
2013-09-17 07:16:00,51.6,46.0,29.31,West,269,32.2,32.2,81,0.00,CLR,,0.01,WeatherDisplay:10.37,2013-09-17 06:16:00,
2013-09-17 07:21:00,51.5,44.9,29.31,WNW,303,29.9,29.9,78,0.00,CLR,,0.01,WeatherDisplay:10.37,2013-09-17 06:21:00,
2013-09-17 07:26:00,51.5,44.9,29.31,NW,309,24.2,24.2,78,0.00,CLR,,0.01,WeatherDisplay:10.37,2013-09-17 06:26:00,
2013-09-17 07:31:00,51.5,45.5,29.31,WNW,290,32.2,32.2,80,0.00,CLR,,0.01,WeatherDisplay:10.37,2013-09-17 06:31:00,
2013-09-17 07:36:00,51.5,45.5,29.31,West,270,26.5,26.5,80,0.00,CLR,,0.01,WeatherDisplay:10.37,2013-09-17 06:36:00,
2013-09-17 07:41:00,51.5,45.2,29.31,West,274,31.1,31.1,79,0.00,CLR,,0.01,WeatherDisplay:10.37,2013-09-17 06:41:00,
2013-09-17 07:46:00,51.5,44.9,29.31,WNW,286,38.0,38.0,78,0.00,,,0.01,WeatherDisplay:10.37,2013-09-17 06:46:00,
2013-09-17 07:51:00,51.6,44.6,29.31,WNW,303,28.8,28.8,77,0.00,CLR,,0.01,WeatherDisplay:10.37,2013-09-17 06:51:00,
2013-09-17 07:56:00,51.6,46.0,29.31,WNW,284,24.2,24.2,81,0.00,CLR,,0.01,WeatherDisplay:10.37,2013-09-17 06:56:00,
2013-09-17 08:01:00,51.5,45.5,29.31,WSW,253,26.5,26.5,80,0.00,CLR,,0.01,WeatherDisplay:10.37,2013-09-17 07:01:00,
2013-09-17 08:06:00,51.4,45.4,29.31,West,265,23.0,23.0,80,0.00,CLR,,0.01,WeatherDisplay:10.37,2013-09-17 07:06:00,
2013-09-17 08:11:00,51.2,45.2,29.31,WSW,251,18.4,18.4,80,0.00,CLR,,0.01,WeatherDisplay:10.37,2013-09-17 07:11:00,
2013-09-17 08:16:00,51.2,45.6,29.31,WSW,256,19.6,19.6,81,0.00,CLR,,0.01,WeatherDisplay:10.37,2013-09-17 07:16:00,
2013-09-17 08:21:00,51.3,45.0,29.31,WSW,257,19.6,19.6,79,0.00,CLR,,0.01,WeatherDisplay:10.37,2013-09-17 07:21:00,
2013-09-17 08:26:00,51.6,45.6,29.32,WSW,242,24.2,24.2,80,0.00,CLR,,0.01,WeatherDisplay:10.37,2013-09-17 07:26:00,
2013-09-17 08:31:00,51.6,45.3,29.31,WSW,249,25.3,25.3,79,0.00,CLR,,0.01,WeatherDisplay:10.37,2013-09-17 07:31:00,
2013-09-17 08:36:00,51.5,46.2,29.31,West,273,24.2,24.2,82,0.00,CLR,,0.01,WeatherDisplay:10.37,2013-09-17 07:36:00,
2013-09-17 08:41:00,51.3,46.3,29.31,WSW,249,25.3,25.3,83,0.00,CLR,,0.01,WeatherDisplay:10.37,2013-09-17 07:41:00,
2013-09-17 08:46:00,51.1,46.4,29.31,West,261,27.6,27.6,84,0.00,CLR,,0.01,WeatherDisplay:10.37,2013-09-17 07:46:00,
2013-09-17 08:51:00,50.9,46.6,29.31,WSW,247,23.0,23.0,85,0.00,CLR,,0.01,WeatherDisplay:10.37,2013-09-17 07:51:00,
2013-09-17 08:56:00,51.1,46.1,29.31,West,273,26.5,26.5,83,0.00,CLR,,0.01,WeatherDisplay:10.37,2013-09-17 07:56:00,
2013-09-17 09:01:00,51.5,45.5,29.30,West,265,28.8,28.8,80,0.00,CLR,,0.01,WeatherDisplay:10.37,2013-09-17 08:01:00,
2013-09-17 09:06:00,51.9,45.6,29.31,WNW,299,25.3,25.3,79,0.00,CLR,,0.01,WeatherDisplay:10.37,2013-09-17 08:06:00,
2013-09-17 09:11:00,52.0,45.7,29.31,WNW,303,26.5,26.5,79,0.00,CLR,,0.01,WeatherDisplay:10.37,2013-09-17 08:11:00,
2013-09-17 09:16:00,52.0,45.4,29.31,WNW,294,25.3,25.3,78,0.00,CLR,,0.01,WeatherDisplay:10.37,2013-09-17 08:16:00,
2013-09-17 09:21:00,52.0,45.0,29.31,West,281,24.2,24.2,77,0.00,CLR,,0.01,WeatherDisplay:10.37,2013-09-17 08:21:00,
2013-09-17 09:26:00,52.0,45.4,29.31,NW,305,19.6,19.6,78,0.00,CLR,,0.01,WeatherDisplay:10.37,2013-09-17 08:26:00,
2013-09-17 09:31:00,52.0,45.7,29.31,WNW,286,26.5,26.5,79,0.00,CLR,,0.01,WeatherDisplay:10.37,2013-09-17 08:31:00,
2013-09-17 09:36:00,52.2,46.2,29.31,West,277,27.6,27.6,80,0.00,CLR,,0.01,WeatherDisplay:10.37,2013-09-17 08:36:00,
2013-09-17 09:41:00,52.3,46.0,29.31,West,280,23.0,23.0,79,0.00,CLR,,0.01,WeatherDisplay:10.37,2013-09-17 08:41:00,
2013-09-17 09:46:00,52.1,46.1,29.31,WNW,290,23.0,23.0,80,0.00,CLR,,0.01,WeatherDisplay:10.37,2013-09-17 08:46:00,
2013-09-17 09:51:00,51.9,45.9,29.31,WNW,298,17.3,17.3,80,0.00,CLR,,0.01,WeatherDisplay:10.37,2013-09-17 08:51:00,
2013-09-17 09:56:00,51.2,45.9,29.32,WNW,297,13.8,13.8,82,0.00,CLR,,0.01,WeatherDisplay:10.37,2013-09-17 08:56:00,
2013-09-17 10:01:00,50.8,45.8,29.31,NW,313,16.1,16.1,83,0.00,CLR,,0.01,WeatherDisplay:10.37,2013-09-17 09:01:00,
2013-09-17 10:06:00,50.5,45.8,29.32,West,263,13.8,13.8,84,0.00,CLR,,0.01,WeatherDisplay:10.37,2013-09-17 09:06:00,
2013-09-17 10:11:00,50.5,46.2,29.32,WNW,290,11.5,11.5,85,0.00,CLR,,0.01,WeatherDisplay:10.37,2013-09-17 09:11:00,
2013-09-17 10:16:00,50.3,46.3,29.32,WNW,296,12.7,12.7,86,0.00,CLR,,0.01,WeatherDisplay:10.37,2013-09-17 09:16:00,
2013-09-17 10:21:00,50.0,46.6,29.32,WNW,290,12.7,12.7,88,0.00,CLR,,0.01,WeatherDisplay:10.37,2013-09-17 09:21:00,
2013-09-17 10:26:00,50.1,46.4,29.32,West,272,15.0,15.0,87,0.00,CLR,,0.01,WeatherDisplay:10.37,2013-09-17 09:26:00,
2013-09-17 10:31:00,50.1,46.1,29.32,NW,306,12.7,12.7,86,0.00,CLR,,0.01,WeatherDisplay:10.37,2013-09-17 09:31:00,
2013-09-17 10:36:00,50.2,45.9,29.32,WNW,297,13.0,13.0,85,0.00,CLR,,0.01,WeatherDisplay:10.37,2013-09-17 09:36:00,
2013-09-17 10:41:00,50.3,46.0,29.32,WNW,300,13.8,13.8,85,0.00,CLR,,0.01,WeatherDisplay:10.37,2013-09-17 09:41:00,
2013-09-17 10:46:00,50.3,46.3,29.32,West,278,11.5,11.5,86,0.00,CLR,,0.01,WeatherDisplay:10.37,2013-09-17 09:46:00,
2013-09-17 10:51:00,50.2,46.2,29.32,WNW,290,12.0,12.0,86,0.00,CLR,,0.01,WeatherDisplay:10.37,2013-09-17 09:51:00,
2013-09-17 10:56:00,50.3,46.3,29.32,West,280,12.7,12.7,86,0.00,CLR,,0.01,WeatherDisplay:10.37,2013-09-17 09:56:00,
2013-09-17 11:01:00,50.4,46.7,29.32,WNW,290,11.5,11.5,87,0.00,CLR,,0.01,WeatherDisplay:10.37,2013-09-17 10:01:00,
2013-09-17 11:06:00,50.4,46.4,29.32,WNW,300,10.4,10.4,86,0.00,CLR,,0.01,WeatherDisplay:10.37,2013-09-17 10:06:00,
2013-09-17 11:11:00,50.3,46.3,29.32,WNW,290,13.8,13.8,86,0.00,CLR,,0.01,WeatherDisplay:10.37,2013-09-17 10:11:00,
2013-09-17 11:16:00,50.2,46.5,29.32,WNW,284,9.2,9.2,87,0.00,CLR,,0.01,WeatherDisplay:10.37,2013-09-17 10:16:00,
2013-09-17 11:21:00,50.2,46.5,29.32,WNW,286,11.5,11.5,87,0.00,CLR,,0.01,WeatherDisplay:10.37,2013-09-17 10:21:00,
2013-09-17 11:26:00,50.4,46.4,29.31,West,271,10.4,10.4,86,0.00,CLR,,0.01,WeatherDisplay:10.37,2013-09-17 10:26:00,
2013-09-17 11:31:00,50.5,46.5,29.32,WNW,293,10.4,10.4,86,0.00,CLR,,0.01,WeatherDisplay:10.37,2013-09-17 10:31:00,
2013-09-17 11:36:00,50.7,46.7,29.32,WNW,291,10.4,10.4,86,0.00,CLR,,0.01,WeatherDisplay:10.37,2013-09-17 10:36:00,
2013-09-17 11:41:00,51.0,47.0,29.32,WNW,284,9.2,9.2,86,0.00,CLR,,0.01,WeatherDisplay:10.37,2013-09-17 10:41:00,
2013-09-17 11:46:00,51.1,46.1,29.32,WNW,301,10.4,10.4,83,0.00,CLR,,0.01,WeatherDisplay:10.37,2013-09-17 10:46:00,
2013-09-17 11:51:00,51.2,46.2,29.32,NW,305,9.2,9.2,83,0.00,CLR,,0.01,WeatherDisplay:10.37,2013-09-17 10:51:00,
2013-09-17 11:56:00,51.3,46.3,29.32,WNW,300,9.2,9.2,83,0.00,CLR,,0.01,WeatherDisplay:10.37,2013-09-17 10:56:00,
2013-09-17 12:01:00,51.4,46.1,29.33,WNW,298,12.7,12.7,82,0.00,CLR,,0.01,WeatherDisplay:10.37,2013-09-17 11:01:00,
2013-09-17 12:06:00,51.1,46.1,29.32,NW,305,12.7,12.7,83,0.00,CLR,,0.01,WeatherDisplay:10.37,2013-09-17 11:06:00,
2013-09-17 12:11:00,50.9,46.6,29.32,WNW,294,11.5,11.5,85,0.00,CLR,,0.01,WeatherDisplay:10.37,2013-09-17 11:11:00,
2013-09-17 12:16:00,50.9,46.6,29.32,NW,307,9.2,9.2,85,0.00,CLR,,0.01,WeatherDisplay:10.37,2013-09-17 11:16:00,
2013-09-17 12:21:00,51.2,46.2,29.32,WNW,293,16.1,16.1,83,0.00,CLR,,0.01,WeatherDisplay:10.37,2013-09-17 11:21:00,
2013-09-17 12:26:00,51.7,46.4,29.32,NW,305,16.1,16.1,82,0.00,CLR,,0.01,WeatherDisplay:10.37,2013-09-17 11:26:00,
2013-09-17 12:31:00,51.9,45.9,29.32,NW,316,12.7,12.7,80,0.00,CLR,,0.01,WeatherDisplay:10.37,2013-09-17 11:31:00,
2013-09-17 12:36:00,52.0,46.0,29.32,WNW,285,11.5,11.5,80,0.00,CLR,,0.01,WeatherDisplay:10.37,2013-09-17 11:36:00,
2013-09-17 12:41:00,52.1,46.4,29.32,WNW,300,13.8,13.8,81,0.00,CLR,,0.01,WeatherDisplay:10.37,2013-09-17 11:41:00,
2013-09-17 12:46:00,52.0,46.0,29.32,NW,311,18.4,18.4,80,0.00,CLR,,0.01,WeatherDisplay:10.37,2013-09-17 11:46:00,
2013-09-17 12:51:00,51.9,46.3,29.32,WNW,303,12.7,12.7,81,0.00,CLR,,0.01,WeatherDisplay:10.37,2013-09-17 11:51:00,
2013-09-17 12:56:00,51.6,46.3,29.33,West,280,16.1,16.1,82,0.00,CLR,,0.01,WeatherDisplay:10.37,2013-09-17 11:56:00,
2013-09-17 13:01:00,51.4,46.7,29.33,WNW,288,14.0,14.0,84,0.01,RA,,0.02,WeatherDisplay:10.37,2013-09-17 12:01:00,
2013-09-17 13:06:00,51.2,46.8,29.32,NW,305,10.4,10.4,85,0.01,RA,,0.02,WeatherDisplay:10.37,2013-09-17 12:06:00,
2013-09-17 13:11:00,51.5,47.1,29.32,WNW,288,10.4,10.4,85,0.01,,,0.02,WeatherDisplay:10.37,2013-09-17 12:11:00,
2013-09-17 13:16:00,51.9,47.2,29.32,West,280,9.2,9.2,84,0.01,CLR,,0.02,WeatherDisplay:10.37,2013-09-17 12:16:00,
2013-09-17 13:21:00,52.1,47.1,29.32,WNW,296,6.9,6.9,83,0.01,CLR,,0.02,WeatherDisplay:10.37,2013-09-17 12:21:00,
2013-09-17 13:26:00,52.4,47.1,29.32,WNW,288,6.9,6.9,82,0.01,CLR,,0.02,WeatherDisplay:10.37,2013-09-17 12:26:00,
2013-09-17 13:31:00,52.7,47.4,29.32,NW,309,10.0,10.0,82,0.01,CLR,,0.02,WeatherDisplay:10.37,2013-09-17 12:31:00,
2013-09-17 13:36:00,52.6,46.9,29.32,WNW,295,11.5,11.5,81,0.01,CLR,,0.02,WeatherDisplay:10.37,2013-09-17 12:36:00,
2013-09-17 13:41:00,52.4,47.7,29.32,WNW,294,8.1,8.1,84,0.02,RA,,0.02,WeatherDisplay:10.37,2013-09-17 12:41:00,
2013-09-17 13:46:00,52.2,46.5,29.32,West,275,16.1,16.1,81,0.02,RA,,0.02,WeatherDisplay:10.37,2013-09-17 12:46:00,
2013-09-17 13:51:00,52.2,46.9,29.32,WNW,286,12.7,12.7,82,0.02,CLR,,0.02,WeatherDisplay:10.37,2013-09-17 12:51:00,
2013-09-17 13:56:00,52.3,46.6,29.32,WNW,293,17.3,17.3,81,0.02,CLR,,0.02,WeatherDisplay:10.37,2013-09-17 12:56:00,
2013-09-17 14:01:00,52.5,47.2,29.32,WNW,303,16.1,16.1,82,0.01,CLR,,0.02,WeatherDisplay:10.37,2013-09-17 13:01:00,
2013-09-17 14:06:00,52.5,46.5,29.32,WNW,284,15.0,15.0,80,0.01,CLR,,0.02,WeatherDisplay:10.37,2013-09-17 13:06:00,
2013-09-17 14:11:00,52.6,46.9,29.32,West,269,19.6,19.6,81,0.01,CLR,,0.02,WeatherDisplay:10.37,2013-09-17 13:11:00,
2013-09-17 14:16:00,52.7,46.7,29.32,West,278,13.8,13.8,80,0.01,CLR,,0.02,WeatherDisplay:10.37,2013-09-17 13:16:00,
2013-09-17 14:21:00,52.8,47.1,29.32,WNW,292,12.7,12.7,81,0.01,CLR,,0.02,WeatherDisplay:10.37,2013-09-17 13:21:00,
2013-09-17 14:26:00,53.1,47.1,29.32,West,271,12.7,12.7,80,0.01,CLR,,0.02,WeatherDisplay:10.37,2013-09-17 13:26:00,
2013-09-17 14:31:00,53.6,47.6,29.32,West,265,10.4,10.4,80,0.01,CLR,,0.02,WeatherDisplay:10.37,2013-09-17 13:31:00,
2013-09-17 14:36:00,54.1,48.1,29.32,West,259,9.2,9.2,80,0.01,CLR,,0.02,WeatherDisplay:10.37,2013-09-17 13:36:00,
2013-09-17 14:41:00,54.0,47.3,29.31,West,272,8.1,8.1,78,0.00,CLR,,0.02,WeatherDisplay:10.37,2013-09-17 13:41:00,
2013-09-17 14:46:00,53.9,46.9,29.32,West,261,12.7,12.7,77,0.00,CLR,,0.02,WeatherDisplay:10.37,2013-09-17 13:46:00,
2013-09-17 14:51:00,53.8,47.4,29.31,West,259,16.1,16.1,79,0.00,CLR,,0.02,WeatherDisplay:10.37,2013-09-17 13:51:00,
2013-09-17 14:56:00,53.7,47.7,29.31,WSW,248,11.5,11.5,80,0.00,CLR,,0.02,WeatherDisplay:10.37,2013-09-17 13:56:00,
2013-09-17 15:01:00,53.9,47.5,29.32,WSW,253,14.0,14.0,79,0.00,CLR,,0.02,WeatherDisplay:10.37,2013-09-17 14:01:00,
2013-09-17 15:06:00,53.9,47.2,29.32,West,280,18.4,18.4,78,0.00,CLR,,0.02,WeatherDisplay:10.37,2013-09-17 14:06:00,
2013-09-17 15:11:00,53.7,46.7,29.32,WNW,298,15.0,15.0,77,0.00,CLR,,0.02,WeatherDisplay:10.37,2013-09-17 14:11:00,
2013-09-17 15:16:00,53.6,45.5,29.32,WNW,286,16.1,16.1,74,0.00,CLR,,0.02,WeatherDisplay:10.37,2013-09-17 14:16:00,
2013-09-17 15:21:00,53.7,46.0,29.32,West,269,12.7,12.7,75,0.00,CLR,,0.02,WeatherDisplay:10.37,2013-09-17 14:21:00,
2013-09-17 15:26:00,54.1,45.3,29.32,WNW,293,11.5,11.5,72,0.00,CLR,,0.02,WeatherDisplay:10.37,2013-09-17 14:26:00,
2013-09-17 15:31:00,54.5,46.0,29.32,WNW,290,10.4,10.4,73,0.00,CLR,,0.02,WeatherDisplay:10.37,2013-09-17 14:31:00,
2013-09-17 15:36:00,54.7,45.8,29.32,NW,311,15.0,15.0,72,0.00,CLR,,0.02,WeatherDisplay:10.37,2013-09-17 14:36:00,
2013-09-17 15:41:00,54.7,45.5,29.32,WNW,300,11.5,11.5,71,0.00,CLR,,0.02,WeatherDisplay:10.37,2013-09-17 14:41:00,
2013-09-17 15:46:00,54.5,45.7,29.31,West,269,13.8,13.8,72,0.00,CLR,,0.02,WeatherDisplay:10.37,2013-09-17 14:46:00,
2013-09-17 15:51:00,54.3,45.8,29.32,WNW,290,10.4,10.4,73,0.00,CLR,,0.02,WeatherDisplay:10.37,2013-09-17 14:51:00,
2013-09-17 15:56:00,54.3,45.8,29.32,WNW,284,11.5,11.5,73,0.00,CLR,,0.02,WeatherDisplay:10.37,2013-09-17 14:56:00,
2013-09-17 16:01:00,54.3,46.9,29.31,West,271,13.8,13.8,76,0.00,CLR,,0.02,WeatherDisplay:10.37,2013-09-17 15:01:00,
2013-09-17 16:06:00,54.8,47.0,29.32,West,276,12.7,12.7,75,0.00,CLR,,0.02,WeatherDisplay:10.37,2013-09-17 15:06:00,
2013-09-17 16:11:00,54.9,46.8,29.32,WNW,289,8.0,8.0,74,0.00,CLR,,0.02,WeatherDisplay:10.37,2013-09-17 15:11:00,
2013-09-17 16:16:00,55.3,46.8,29.31,WNW,291,9.2,9.2,73,0.00,CLR,,0.02,WeatherDisplay:10.37,2013-09-17 15:16:00,
2013-09-17 16:21:00,55.7,46.4,29.31,WNW,298,11.5,11.5,71,0.00,CLR,,0.02,WeatherDisplay:10.37,2013-09-17 15:21:00,
2013-09-17 16:26:00,55.8,46.5,29.31,WNW,303,15.0,15.0,71,0.00,CLR,,0.02,WeatherDisplay:10.37,2013-09-17 15:26:00,
2013-09-17 16:31:00,55.6,46.0,29.31,WNW,293,17.3,17.3,70,0.00,CLR,,0.02,WeatherDisplay:10.37,2013-09-17 15:31:00,
2013-09-17 16:36:00,55.6,46.7,29.31,NW,312,19.6,19.6,72,0.00,CLR,,0.02,WeatherDisplay:10.37,2013-09-17 15:36:00,
2013-09-17 16:41:00,54.9,47.1,29.31,NW,305,18.4,18.4,75,0.00,CLR,,0.02,WeatherDisplay:10.37,2013-09-17 15:41:00,
2013-09-17 16:46:00,55.3,47.2,29.31,WNW,297,14.0,14.0,74,0.00,CLR,,0.02,WeatherDisplay:10.37,2013-09-17 15:46:00,
2013-09-17 16:51:00,55.5,47.0,29.31,WNW,293,12.7,12.7,73,0.00,CLR,,0.02,WeatherDisplay:10.37,2013-09-17 15:51:00,
2013-09-17 16:56:00,55.6,46.7,29.31,WNW,303,13.0,13.0,72,0.00,CLR,,0.02,WeatherDisplay:10.37,2013-09-17 15:56:00,
2013-09-17 17:01:00,55.3,47.2,29.31,WNW,303,12.7,12.7,74,0.00,CLR,,0.02,WeatherDisplay:10.37,2013-09-17 16:01:00,
2013-09-17 17:06:00,55.3,46.8,29.31,WNW,290,11.5,11.5,73,0.00,CLR,,0.02,WeatherDisplay:10.37,2013-09-17 16:06:00,
2013-09-17 17:11:00,55.2,47.1,29.31,NW,317,11.5,11.5,74,0.00,CLR,,0.02,WeatherDisplay:10.37,2013-09-17 16:11:00,
2013-09-17 17:16:00,55.5,47.3,29.31,NW,323,6.9,6.9,74,0.00,CLR,,0.02,WeatherDisplay:10.37,2013-09-17 16:16:00,
2013-09-17 17:21:00,55.5,47.3,29.31,WNW,303,10.4,10.4,74,0.00,CLR,,0.02,WeatherDisplay:10.37,2013-09-17 16:21:00,
2013-09-17 17:26:00,55.4,47.2,29.31,NNW,332,11.5,11.5,74,0.00,CLR,,0.02,WeatherDisplay:10.37,2013-09-17 16:26:00,
2013-09-17 17:31:00,55.2,47.1,29.31,North,2,9.2,9.2,74,0.00,CLR,,0.02,WeatherDisplay:10.37,2013-09-17 16:31:00,
2013-09-17 17:36:00,55.3,47.2,29.31,NW,305,11.5,11.5,74,0.00,CLR,,0.02,WeatherDisplay:10.37,2013-09-17 16:36:00,
2013-09-17 17:41:00,55.3,47.5,29.31,WNW,301,11.5,11.5,75,0.00,CLR,,0.02,WeatherDisplay:10.37,2013-09-17 16:41:00,
2013-09-17 17:46:00,55.3,47.2,29.32,WNW,303,15.0,15.0,74,0.00,CLR,,0.02,WeatherDisplay:10.37,2013-09-17 16:46:00,
2013-09-17 17:51:00,54.6,46.8,29.32,NW,306,15.0,15.0,75,0.00,CLR,,0.02,WeatherDisplay:10.37,2013-09-17 16:51:00,
2013-09-17 17:56:00,54.2,46.8,29.32,NW,309,17.3,17.3,76,0.00,CLR,,0.02,WeatherDisplay:10.37,2013-09-17 16:56:00,
2013-09-17 18:02:00,53.9,47.2,29.33,WNW,294,13.8,13.8,78,0.00,CLR,,0.02,WeatherDisplay:10.37,2013-09-17 17:02:00,
2013-09-17 18:07:00,53.7,47.0,29.33,WNW,294,12.0,12.0,78,0.00,CLR,,0.02,WeatherDisplay:10.37,2013-09-17 17:07:00,
2013-09-17 18:12:00,53.8,47.1,29.32,WNW,294,13.8,13.8,78,0.00,CLR,,0.02,WeatherDisplay:10.37,2013-09-17 17:12:00,
2013-09-17 18:17:00,53.9,46.5,29.33,West,264,13.8,13.8,76,0.00,CLR,,0.02,WeatherDisplay:10.37,2013-09-17 17:17:00,
2013-09-17 18:22:00,53.9,46.5,29.33,WNW,285,15.0,15.0,76,0.00,CLR,,0.02,WeatherDisplay:10.37,2013-09-17 17:22:00,
2013-09-17 18:27:00,53.8,46.8,29.33,West,276,16.1,16.1,77,0.00,CLR,,0.02,WeatherDisplay:10.37,2013-09-17 17:27:00,
2013-09-17 18:32:00,53.4,47.0,29.33,West,277,16.1,16.1,79,0.00,CLR,,0.02,WeatherDisplay:10.37,2013-09-17 17:32:00,
2013-09-17 18:37:00,53.0,47.0,29.33,WNW,293,17.3,17.3,80,0.00,CLR,,0.02,WeatherDisplay:10.37,2013-09-17 17:37:00,
2013-09-17 18:42:00,52.8,46.8,29.33,WNW,285,17.3,17.3,80,0.00,CLR,,0.02,WeatherDisplay:10.37,2013-09-17 17:42:00,
2013-09-17 18:47:00,52.6,46.6,29.33,WNW,297,11.5,11.5,80,0.00,CLR,,0.02,WeatherDisplay:10.37,2013-09-17 17:47:00,
2013-09-17 18:52:00,52.6,46.6,29.33,West,272,12.7,12.7,80,0.00,CLR,,0.02,WeatherDisplay:10.37,2013-09-17 17:52:00,
2013-09-17 18:57:00,52.6,46.9,29.33,NW,314,12.7,12.7,81,0.00,CLR,,0.02,WeatherDisplay:10.37,2013-09-17 17:57:00,
2013-09-17 19:02:00,52.2,46.9,29.33,WNW,292,16.1,16.1,82,0.00,CLR,,0.02,WeatherDisplay:10.37,2013-09-17 18:02:00,
2013-09-17 19:07:00,52.1,47.1,29.34,WNW,298,16.1,16.1,83,0.00,CLR,,0.02,WeatherDisplay:10.37,2013-09-17 18:07:00,
2013-09-17 19:12:00,51.9,46.9,29.34,WNW,296,11.5,11.5,83,0.00,CLR,,0.02,WeatherDisplay:10.37,2013-09-17 18:12:00,
2013-09-17 19:17:00,51.9,46.6,29.34,WNW,296,12.7,12.7,82,0.00,CLR,,0.02,WeatherDisplay:10.37,2013-09-17 18:17:00,
2013-09-17 19:22:00,51.9,46.3,29.34,West,280,12.7,12.7,81,0.00,CLR,,0.02,WeatherDisplay:10.37,2013-09-17 18:22:00,
2013-09-17 19:27:00,51.8,47.1,29.34,West,278,11.5,11.5,84,0.00,CLR,,0.02,WeatherDisplay:10.37,2013-09-17 18:27:00,
2013-09-17 19:32:00,51.6,46.9,29.34,WNW,282,11.5,11.5,84,0.00,CLR,,0.02,WeatherDisplay:10.37,2013-09-17 18:32:00,
2013-09-17 19:37:00,51.4,46.4,29.35,NW,317,8.1,8.1,83,0.00,CLR,,0.02,WeatherDisplay:10.37,2013-09-17 18:37:00,
2013-09-17 19:42:00,51.2,45.9,29.35,WNW,301,2.0,2.0,82,0.00,CLR,,0.02,WeatherDisplay:10.37,2013-09-17 18:42:00,
2013-09-17 19:47:00,51.1,46.1,29.36,West,278,5.8,5.8,83,0.00,CLR,,0.02,WeatherDisplay:10.37,2013-09-17 18:47:00,
2013-09-17 19:52:00,50.8,45.8,29.36,ESE,117,3.5,3.5,83,0.00,CLR,,0.02,WeatherDisplay:10.37,2013-09-17 18:52:00,
2013-09-17 19:57:00,50.0,45.4,29.36,NE,37,3.5,3.5,84,0.00,CLR,,0.02,WeatherDisplay:10.37,2013-09-17 18:57:00,
2013-09-17 20:02:00,49.6,45.6,29.36,West,274,2.0,2.0,86,0.00,CLR,,0.02,WeatherDisplay:10.37,2013-09-17 19:02:00,
2013-09-17 20:07:00,49.9,45.6,29.36,WNW,294,1.2,1.2,85,0.00,CLR,,0.02,WeatherDisplay:10.37,2013-09-17 19:07:00,
2013-09-17 20:12:00,50.1,45.8,29.36,WNW,296,1.2,1.2,85,0.00,CLR,,0.02,WeatherDisplay:10.37,2013-09-17 19:12:00,
2013-09-17 20:17:00,50.4,46.1,29.36,WNW,293,6.9,6.9,85,0.00,CLR,,0.02,WeatherDisplay:10.37,2013-09-17 19:17:00,
2013-09-17 20:22:00,50.4,45.7,29.36,NNW,328,3.5,3.5,84,0.00,CLR,,0.02,WeatherDisplay:10.37,2013-09-17 19:22:00,
2013-09-17 20:27:00,50.0,45.4,29.36,NW,313,1.2,1.2,84,0.00,CLR,,0.02,WeatherDisplay:10.37,2013-09-17 19:27:00,
2013-09-17 20:32:00,49.6,45.0,29.36,NW,313,3.5,3.5,84,0.00,CLR,,0.02,WeatherDisplay:10.37,2013-09-17 19:32:00,
2013-09-17 20:37:00,49.4,45.1,29.37,NW,306,3.5,3.5,85,0.00,CLR,,0.02,WeatherDisplay:10.37,2013-09-17 19:37:00,
2013-09-17 20:42:00,49.5,45.2,29.37,NW,311,7.0,7.0,85,0.00,CLR,,0.02,WeatherDisplay:10.37,2013-09-17 19:42:00,
2013-09-17 20:47:00,49.8,45.5,29.37,WNW,297,8.1,8.1,85,0.00,CLR,,0.02,WeatherDisplay:10.37,2013-09-17 19:47:00,
2013-09-17 20:52:00,50.4,46.4,29.37,WNW,289,12.7,12.7,86,0.00,CLR,,0.02,WeatherDisplay:10.37,2013-09-17 19:52:00,
2013-09-17 20:57:00,50.6,46.3,29.37,WNW,298,9.2,9.2,85,0.00,CLR,,0.02,WeatherDisplay:10.37,2013-09-17 19:57:00,
2013-09-17 21:02:00,50.3,45.6,29.37,WNW,301,4.6,4.6,84,0.00,CLR,,0.02,WeatherDisplay:10.37,2013-09-17 20:02:00,
2013-09-17 21:07:00,50.2,45.6,29.38,WNW,293,6.9,6.9,84,0.00,CLR,,0.02,WeatherDisplay:10.37,2013-09-17 20:07:00,
2013-09-17 21:12:00,50.4,45.7,29.38,NW,319,6.9,6.9,84,0.00,CLR,,0.02,WeatherDisplay:10.37,2013-09-17 20:12:00,
2013-09-17 21:17:00,50.0,45.0,29.38,ENE,57,3.5,3.5,83,0.00,CLR,,0.02,WeatherDisplay:10.37,2013-09-17 20:17:00,
2013-09-17 21:22:00,49.3,44.7,29.39,NW,316,1.0,1.0,84,0.00,CLR,,0.02,WeatherDisplay:10.37,2013-09-17 20:22:00,
2013-09-17 21:27:00,48.8,44.5,29.39,WNW,298,2.3,2.3,85,0.00,CLR,,0.02,WeatherDisplay:10.37,2013-09-17 20:27:00,
2013-09-17 21:32:00,49.2,45.2,29.39,West,280,7.0,7.0,86,0.00,CLR,,0.02,WeatherDisplay:10.37,2013-09-17 20:32:00,
2013-09-17 21:37:00,49.6,45.6,29.39,WNW,282,8.0,8.0,86,0.00,CLR,,0.02,WeatherDisplay:10.37,2013-09-17 20:37:00,
2013-09-17 21:42:00,49.7,45.4,29.39,NW,309,6.9,6.9,85,0.00,CLR,,0.02,WeatherDisplay:10.37,2013-09-17 20:42:00,
2013-09-17 21:47:00,48.7,44.4,29.39,NW,312,1.2,1.2,85,0.00,CLR,,0.02,WeatherDisplay:10.37,2013-09-17 20:47:00,
2013-09-17 21:52:00,48.8,45.1,29.39,WNW,299,9.2,9.2,87,0.00,CLR,,0.02,WeatherDisplay:10.37,2013-09-17 20:52:00,
2013-09-17 21:57:00,49.5,45.2,29.39,WNW,294,11.5,11.5,85,0.00,CLR,,0.02,WeatherDisplay:10.37,2013-09-17 20:57:00,
2013-09-17 22:02:00,49.7,45.7,29.40,WNW,290,8.1,8.1,86,0.00,CLR,,0.02,WeatherDisplay:10.37,2013-09-17 21:02:00,
2013-09-17 22:07:00,49.7,45.4,29.40,NW,305,10.4,10.4,85,0.00,CLR,,0.02,WeatherDisplay:10.37,2013-09-17 21:07:00,
2013-09-17 22:12:00,49.5,45.2,29.40,West,279,4.6,4.6,85,0.00,CLR,,0.02,WeatherDisplay:10.37,2013-09-17 21:12:00,
2013-09-17 22:17:00,49.6,45.3,29.40,West,259,6.9,6.9,85,0.00,CLR,,0.02,WeatherDisplay:10.37,2013-09-17 21:17:00,
2013-09-17 22:22:00,49.3,45.0,29.40,WSW,254,3.5,3.5,85,0.00,CLR,,0.02,WeatherDisplay:10.37,2013-09-17 21:22:00,
2013-09-17 22:27:00,49.1,45.4,29.40,West,278,2.3,2.3,87,0.00,CLR,,0.02,WeatherDisplay:10.37,2013-09-17 21:27:00,
2013-09-17 22:32:00,48.8,45.1,29.41,NW,305,4.6,4.6,87,0.00,CLR,,0.02,WeatherDisplay:10.37,2013-09-17 21:32:00,
2013-09-17 22:37:00,48.7,45.0,29.40,NNW,343,2.3,2.3,87,0.00,CLR,,0.02,WeatherDisplay:10.37,2013-09-17 21:37:00,
2013-09-17 22:42:00,48.2,44.5,29.41,North,358,1.2,1.2,87,0.00,CLR,,0.02,WeatherDisplay:10.37,2013-09-17 21:42:00,
2013-09-17 22:47:00,47.8,44.1,29.41,NNW,344,0.0,0.0,87,0.00,CLR,,0.02,WeatherDisplay:10.37,2013-09-17 21:47:00,
2013-09-17 22:52:00,47.5,44.4,29.41,NNW,344,1.2,1.2,89,0.00,CLR,,0.02,WeatherDisplay:10.37,2013-09-17 21:52:00,
2013-09-17 22:57:00,47.1,44.0,29.41,NNW,339,1.2,1.2,89,0.00,CLR,,0.02,WeatherDisplay:10.37,2013-09-17 21:57:00,
2013-09-17 23:02:00,46.8,43.7,29.41,NNW,340,0.0,0.0,89,0.00,CLR,,0.02,WeatherDisplay:10.37,2013-09-17 22:02:00,
2013-09-17 23:07:00,46.7,44.2,29.41,North,349,2.3,2.3,91,0.00,CLR,,0.02,WeatherDisplay:10.37,2013-09-17 22:07:00,
2013-09-17 23:12:00,46.8,44.3,29.41,NNW,340,1.2,1.2,91,0.00,CLR,,0.02,WeatherDisplay:10.37,2013-09-17 22:12:00,
2013-09-17 23:17:00,46.7,44.2,29.41,NNW,334,1.2,0.0,91,0.00,CLR,,0.02,WeatherDisplay:10.37,2013-09-17 22:17:00,
2013-09-17 23:22:00,46.8,44.3,29.41,NNW,334,0.0,0.0,91,0.00,CLR,,0.02,WeatherDisplay:10.37,2013-09-17 22:22:00,
2013-09-17 23:27:00,46.7,43.9,29.41,NNW,334,0.0,0.0,90,0.00,CLR,,0.02,WeatherDisplay:10.37,2013-09-17 22:27:00,
2013-09-17 23:32:00,46.6,43.8,29.41,NNW,334,0.0,0.0,90,0.00,CLR,,0.02,WeatherDisplay:10.37,2013-09-17 22:32:00,
2013-09-17 23:37:00,46.3,43.5,29.42,NNW,334,1.2,1.2,90,0.00,CLR,,0.02,WeatherDisplay:10.37,2013-09-17 22:37:00,
2013-09-17 23:42:00,46.1,43.6,29.41,NNW,334,1.2,1.2,91,0.00,CLR,,0.02,WeatherDisplay:10.37,2013-09-17 22:42:00,
2013-09-17 23:47:00,46.0,43.5,29.41,NNW,334,2.3,2.3,91,0.00,CLR,,0.02,WeatherDisplay:10.37,2013-09-17 22:47:00,
2013-09-17 23:52:00,45.8,43.3,29.42,NNW,334,0.0,0.0,91,0.00,CLR,,0.02,WeatherDisplay:10.37,2013-09-17 22:52:00,
2013-09-17 23:57:00,45.5,43.0,29.42,NNW,334,1.2,1.2,91,0.00,CLR,,0.02,WeatherDisplay:10.37,2013-09-17 22:57:00,